Terminal Aerodrome Forecast
Issued by NWS

Home | Current Version | Previous Version | Graphics & Text | Print | Product List | Glossary On
Versions: 1 2 3 4 5 6 7 8 9 10 11 12 13
871
FTUS45 KGGW 232320
TAFSDY
TAF
KSDY 232320Z 2400/2424 VRB05KT P6SM BKN150
     FM240600 02004KT 6SM BR FEW045
     FM241700 11004KT P6SM FEW040
     FM242200 13007KT P6SM FEW220=

USA.gov is the U.S. government's official web portal to all federal, state and local government web resources and services.